Sabinal — WDC2725 — position and weather

sailwx.info

Track history (hours):
 
Tides and Currents Weather Stations Pressure Air Temp Water Temp Dewpoint Dewpoint Depression Visibility Wind Speed Wind Dir Waves Ship Positions

Sabinal

Owner: Kirby Inland Marine, LP, Houston, TX. More information available from US FCC via Universal Licensing System and Coast Guard Vessel Documentation Center.

Last reported at 2017-Sep-20 23:52 UTC. Time now 2017-Sep-24 19:32 UTC.
Position N 29°46' W 095°05'.

Length 20 m; draft 3 m.

Type: . MMSI: 366996840.

Date/timePositionNaut miles runAvg speedWind from/ knotsBaromVisibWave heightAir tempDewpointWater temp
2017-Sep-20 23:52N 29°46' W 095°05'0 0.0
2017-Sep-20 07:32N 29°46' W 095°05'0 5.7
2017-Sep-20 07:30N 29°46' W 095°05'2 2.1
2017-Sep-20 06:38N 29°47' W 095°04'0 0.0
2017-Sep-20 06:30N 29°47' W 095°04'0 0.0
2017-Sep-20 05:55N 29°47' W 095°04'0 0.0
2017-Sep-20 05:28N 29°47' W 095°04'0 0.0
2017-Sep-20 04:36N 29°47' W 095°04'0 0.0
2017-Sep-20 04:29N 29°47' W 095°04'1 0.0
2017-Sep-19 04:13N 29°47' W 095°05'0 0.2
2017-Sep-19 04:01N 29°47' W 095°05'0 0.1
2017-Sep-19 03:27N 29°47' W 095°05'0 0.1
2017-Sep-19 02:55N 29°47' W 095°05'1 0.3
2017-Sep-18 22:09N 29°48' W 095°04'2 0.6
2017-Sep-18 18:52N 29°46' W 095°05'0 0.0
2017-Sep-18 17:35N 29°46' W 095°05'0 0.0
2017-Sep-18 17:30N 29°46' W 095°05'0 0.0
2017-Sep-17 12:33N 29°45' W 095°06'0 0.0
2017-Sep-17 00:14N 29°45' W 095°06'0 0.2
2017-Sep-16 23:36N 29°45' W 095°06'0 0.1
2017-Sep-16 22:49N 29°45' W 095°06'1 0.2
2017-Sep-16 19:21N 29°46' W 095°05'2 5.1
2017-Sep-16 19:00N 29°45' W 095°04'6 0.7
2017-Sep-16 10:10N 29°45' W 095°11'1 6.3
2017-Sep-16 09:58N 29°45' W 095°10'3 5.7
2017-Sep-16 09:30N 29°44' W 095°07'3 5.7
2017-Sep-16 08:59N 29°47' W 095°05'2 0.3
2017-Sep-16 03:36N 29°45' W 095°06'0 0.0
2017-Sep-16 03:27N 29°45' W 095°06'0 0.0
2017-Sep-16 02:58N 29°45' W 095°06'0 0.2
2017-Sep-16 02:31N 29°45' W 095°06'0 0.0
2017-Sep-15 13:50N 29°45' W 095°06'0 0.3
2017-Sep-15 13:30N 29°45' W 095°06'0 0.0
2017-Sep-15 13:00N 29°45' W 095°06'0 0.0
2017-Sep-15 12:30N 29°45' W 095°06'2 1.8
2017-Sep-15 11:37N 29°47' W 095°05'1 0.7
2017-Sep-15 09:57N 29°46' W 095°05'1 0.7
2017-Sep-15 08:19N 29°47' W 095°05'1 2.5
2017-Sep-15 07:57N 29°46' W 095°05'2 5.3
2017-Sep-15 07:30N 29°44' W 095°03'0 0.0
2017-Sep-14 20:23N 29°44' W 095°03'3 3.1
2017-Sep-14 19:30N 29°45' W 095°06'0 0.0
2017-Sep-14 18:43N 29°45' W 095°06'7 1.7
2017-Sep-14 14:17N 29°44' W 095°14'3 0.7
2017-Sep-14 10:31N 29°45' W 095°11'1 1.2
2017-Sep-14 09:54N 29°45' W 095°10'3 5.7
2017-Sep-14 09:27N 29°44' W 095°08'3 2.2
2017-Sep-14 08:02N 29°46' W 095°05'1 0.2
2017-Sep-14 04:34N 29°45' W 095°04'0 6.4
2017-Sep-14 04:30N 29°45' W 095°04'1 2.3
2017-Sep-14 04:00N 29°44' W 095°03'0 0.0
2017-Sep-14 03:30N 29°44' W 095°03'0 0.0
2017-Sep-14 02:53N 29°44' W 095°03'0 0.0
2017-Sep-14 02:30N 29°44' W 095°03'0 0.0
2017-Sep-14 02:00N 29°44' W 095°03'0 0.0
2017-Sep-14 01:30N 29°44' W 095°03'0 0.0
2017-Sep-14 01:00N 29°44' W 095°03'0 0.0
2017-Sep-14 00:30N 29°44' W 095°03'0 0.0
2017-Sep-14 00:00N 29°44' W 095°03'0 0.0
2017-Sep-13 23:30N 29°44' W 095°03'0 0.0
2017-Sep-13 23:00N 29°44' W 095°03'0 0.0
2017-Sep-13 22:30N 29°44' W 095°03'0 0.0
2017-Sep-13 22:00N 29°44' W 095°03'0 0.0
2017-Sep-13 21:30N 29°44' W 095°03'0 0.0
2017-Sep-13 21:00N 29°44' W 095°03'0 0.0
2017-Sep-13 20:30N 29°44' W 095°03'0 0.0
2017-Sep-13 20:00N 29°44' W 095°03'0 0.0
2017-Sep-13 19:30N 29°44' W 095°03'0 0.0
2017-Sep-13 19:00N 29°44' W 095°03'0 0.0
2017-Sep-13 18:30N 29°44' W 095°03'0 0.0
2017-Sep-13 18:00N 29°44' W 095°03'0 0.0
2017-Sep-13 17:30N 29°44' W 095°03'0 0.0
2017-Sep-13 17:00N 29°44' W 095°03'0 0.0
2017-Sep-13 16:30N 29°44' W 095°03'0 0.0
2017-Sep-13 16:00N 29°44' W 095°03'0 0.0
2017-Sep-13 15:30N 29°44' W 095°03'0 0.0
2017-Sep-13 15:00N 29°44' W 095°03'0 0.1
2017-Sep-13 14:30N 29°44' W 095°03'3 2.7
2017-Sep-13 13:28N 29°46' W 095°06'0 0.0
2017-Sep-13 12:55N 29°46' W 095°06'0 0.1
2017-Sep-13 12:22N 29°46' W 095°06'0 0.0
2017-Sep-13 02:19N 29°46' W 095°05'2 6.4
2017-Sep-13 02:00N 29°44' W 095°04'2 0.7
2017-Sep-12 23:33N 29°44' W 095°02'7 0.3
2017-Sep-12 03:20N 29°44' W 095°09'2 3.9
2017-Sep-12 02:52N 29°44' W 095°07'2 6.4
2017-Sep-12 02:30N 29°46' W 095°05'0 0.0
2017-Sep-11 15:21N 29°46' W 095°05'0 0.1
2017-Sep-11 13:45N 29°46' W 095°05'2 6.4
2017-Sep-11 13:25N 29°45' W 095°04'2 0.3
2017-Sep-11 07:33N 29°46' W 095°05'0 1.8
2017-Sep-11 07:29N 29°46' W 095°05'1 0.4
2017-Sep-11 06:11N 29°45' W 095°06'0 0.3
2017-Sep-11 05:54N 29°45' W 095°06'0 0.1
2017-Sep-11 00:42N 29°46' W 095°05'  
Track history (hours):
 
Tides and Currents Weather Stations Pressure Air Temp Water Temp Dewpoint Dewpoint Depression Visibility Wind Speed Wind Dir Waves Ship Positions

Sabinal

Owner: Kirby Inland Marine, LP, Houston, TX. More information available from US FCC via Universal Licensing System and Coast Guard Vessel Documentation Center.

Last reported at 2017-Sep-20 23:52 UTC. Time now 2017-Sep-24 19:32 UTC.
Position N 29°46' W 095°05'.

Length 20 m; draft 3 m.

Type: . MMSI: 366996840.

Date/timePositionNaut miles runAvg speedWind from/ knotsBaromVisibWave heightAir tempDewpointWater temp
2017-Sep-20 23:52N 29°46' W 095°05'0 0.0
2017-Sep-20 07:32N 29°46' W 095°05'0 5.7
2017-Sep-20 07:30N 29°46' W 095°05'2 2.1
2017-Sep-20 06:38N 29°47' W 095°04'0 0.0
2017-Sep-20 06:30N 29°47' W 095°04'0 0.0
2017-Sep-20 05:55N 29°47' W 095°04'0 0.0
2017-Sep-20 05:28N 29°47' W 095°04'0 0.0
2017-Sep-20 04:36N 29°47' W 095°04'0 0.0
2017-Sep-20 04:29N 29°47' W 095°04'1 0.0
2017-Sep-19 04:13N 29°47' W 095°05'0 0.2
2017-Sep-19 04:01N 29°47' W 095°05'0 0.1
2017-Sep-19 03:27N 29°47' W 095°05'0 0.1
2017-Sep-19 02:55N 29°47' W 095°05'1 0.3
2017-Sep-18 22:09N 29°48' W 095°04'2 0.6
2017-Sep-18 18:52N 29°46' W 095°05'0 0.0
2017-Sep-18 17:35N 29°46' W 095°05'0 0.0
2017-Sep-18 17:30N 29°46' W 095°05'0 0.0
2017-Sep-17 12:33N 29°45' W 095°06'0 0.0
2017-Sep-17 00:14N 29°45' W 095°06'0 0.2
2017-Sep-16 23:36N 29°45' W 095°06'0 0.1
2017-Sep-16 22:49N 29°45' W 095°06'1 0.2
2017-Sep-16 19:21N 29°46' W 095°05'2 5.1
2017-Sep-16 19:00N 29°45' W 095°04'6 0.7
2017-Sep-16 10:10N 29°45' W 095°11'1 6.3
2017-Sep-16 09:58N 29°45' W 095°10'3 5.7
2017-Sep-16 09:30N 29°44' W 095°07'3 5.7
2017-Sep-16 08:59N 29°47' W 095°05'2 0.3
2017-Sep-16 03:36N 29°45' W 095°06'0 0.0
2017-Sep-16 03:27N 29°45' W 095°06'0 0.0
2017-Sep-16 02:58N 29°45' W 095°06'0 0.2
2017-Sep-16 02:31N 29°45' W 095°06'0 0.0
2017-Sep-15 13:50N 29°45' W 095°06'0 0.3
2017-Sep-15 13:30N 29°45' W 095°06'0 0.0
2017-Sep-15 13:00N 29°45' W 095°06'0 0.0
2017-Sep-15 12:30N 29°45' W 095°06'2 1.8
2017-Sep-15 11:37N 29°47' W 095°05'1 0.7
2017-Sep-15 09:57N 29°46' W 095°05'1 0.7
2017-Sep-15 08:19N 29°47' W 095°05'1 2.5
2017-Sep-15 07:57N 29°46' W 095°05'2 5.3
2017-Sep-15 07:30N 29°44' W 095°03'0 0.0
2017-Sep-14 20:23N 29°44' W 095°03'3 3.1
2017-Sep-14 19:30N 29°45' W 095°06'0 0.0
2017-Sep-14 18:43N 29°45' W 095°06'7 1.7
2017-Sep-14 14:17N 29°44' W 095°14'3 0.7
2017-Sep-14 10:31N 29°45' W 095°11'1 1.2
2017-Sep-14 09:54N 29°45' W 095°10'3 5.7
2017-Sep-14 09:27N 29°44' W 095°08'3 2.2
2017-Sep-14 08:02N 29°46' W 095°05'1 0.2
2017-Sep-14 04:34N 29°45' W 095°04'0 6.4
2017-Sep-14 04:30N 29°45' W 095°04'1 2.3
2017-Sep-14 04:00N 29°44' W 095°03'0 0.0
2017-Sep-14 03:30N 29°44' W 095°03'0 0.0
2017-Sep-14 02:53N 29°44' W 095°03'0 0.0
2017-Sep-14 02:30N 29°44' W 095°03'0 0.0
2017-Sep-14 02:00N 29°44' W 095°03'0 0.0
2017-Sep-14 01:30N 29°44' W 095°03'0 0.0
2017-Sep-14 01:00N 29°44' W 095°03'0 0.0
2017-Sep-14 00:30N 29°44' W 095°03'0 0.0
2017-Sep-14 00:00N 29°44' W 095°03'0 0.0
2017-Sep-13 23:30N 29°44' W 095°03'0 0.0
2017-Sep-13 23:00N 29°44' W 095°03'0 0.0
2017-Sep-13 22:30N 29°44' W 095°03'0 0.0
2017-Sep-13 22:00N 29°44' W 095°03'0 0.0
2017-Sep-13 21:30N 29°44' W 095°03'0 0.0
2017-Sep-13 21:00N 29°44' W 095°03'0 0.0
2017-Sep-13 20:30N 29°44' W 095°03'0 0.0
2017-Sep-13 20:00N 29°44' W 095°03'0 0.0
2017-Sep-13 19:30N 29°44' W 095°03'0 0.0
2017-Sep-13 19:00N 29°44' W 095°03'0 0.0
2017-Sep-13 18:30N 29°44' W 095°03'0 0.0
2017-Sep-13 18:00N 29°44' W 095°03'0 0.0
2017-Sep-13 17:30N 29°44' W 095°03'0 0.0
2017-Sep-13 17:00N 29°44' W 095°03'0 0.0
2017-Sep-13 16:30N 29°44' W 095°03'0 0.0
2017-Sep-13 16:00N 29°44' W 095°03'0 0.0
2017-Sep-13 15:30N 29°44' W 095°03'0 0.0
2017-Sep-13 15:00N 29°44' W 095°03'0 0.1
2017-Sep-13 14:30N 29°44' W 095°03'3 2.7
2017-Sep-13 13:28N 29°46' W 095°06'0 0.0
2017-Sep-13 12:55N 29°46' W 095°06'0 0.1
2017-Sep-13 12:22N 29°46' W 095°06'0 0.0
2017-Sep-13 02:19N 29°46' W 095°05'2 6.4
2017-Sep-13 02:00N 29°44' W 095°04'2 0.7
2017-Sep-12 23:33N 29°44' W 095°02'7 0.3
2017-Sep-12 03:20N 29°44' W 095°09'2 3.9
2017-Sep-12 02:52N 29°44' W 095°07'2 6.4
2017-Sep-12 02:30N 29°46' W 095°05'0 0.0
2017-Sep-11 15:21N 29°46' W 095°05'0 0.1
2017-Sep-11 13:45N 29°46' W 095°05'2 6.4
2017-Sep-11 13:25N 29°45' W 095°04'2 0.3
2017-Sep-11 07:33N 29°46' W 095°05'0 1.8
2017-Sep-11 07:29N 29°46' W 095°05'1 0.4
2017-Sep-11 06:11N 29°45' W 095°06'0 0.3
2017-Sep-11 05:54N 29°45' W 095°06'0 0.1
2017-Sep-11 00:42N 29°46' W 095°05'  

Dump ship's entire track history